Time;durP1;ratioP1;P1;durP2;ratioP2;P2;SDS_P1;SDS_P2;PMS_P1;PMS_P2;Temp;Humidity;BMP_temperature;BMP_pressure;BME280_temperature;BME280_humidity;BME280_pressure;Samples;Min_cycle;Max_cycle;Signal;HPM_P1;HPM_P2
2023/04/18 00:00:22;;;;;;;9.77;8.97;;;12.70;41.80;;;;;;10340538;28;20826;-69
2023/04/18 00:05:25;;;;;;;10.83;9.93;;;12.70;41.90;;;;;;10332600;28;20230;-69
2023/04/18 00:10:29;;;;;;;11.27;10.27;;;12.70;41.60;;;;;;10331965;28;20992;-69
2023/04/18 00:15:34;;;;;;;10.27;9.40;;;12.60;42.20;;;;;;10336068;28;20234;-69
2023/04/18 00:20:38;;;;;;;10.17;9.30;;;12.60;41.70;;;;;;10331621;28;20235;-69
2023/04/18 00:25:41;;;;;;;10.80;10.00;;;12.50;41.40;;;;;;10329788;28;20226;-70
2023/04/18 00:30:45;;;;;;;10.00;9.20;;;12.50;41.60;;;;;;10334571;28;20302;-69
2023/04/18 00:35:49;;;;;;;10.77;9.87;;;12.40;41.60;;;;;;10342855;28;20256;-69
2023/04/18 00:40:52;;;;;;;12.00;11.00;;;12.40;41.60;;;;;;10343125;28;20227;-69
2023/04/18 00:46:00;;;;;;;11.23;10.13;;;12.30;41.60;;;;;;10339430;28;20227;-69
2023/04/18 00:51:03;;;;;;;10.93;10.03;;;12.20;41.80;;;;;;10340545;28;20238;-70
2023/04/18 00:56:07;;;;;;;10.17;9.27;;;12.20;41.80;;;;;;10346204;28;20231;-70
2023/04/18 01:01:12;;;;;;;10.93;10.03;;;12.20;41.90;;;;;;10338345;28;20234;-70
2023/04/18 01:06:15;;;;;;;10.57;9.67;;;12.20;41.90;;;;;;10339078;28;20643;-69
2023/04/18 01:11:18;;;;;;;11.37;10.37;;;12.20;41.90;;;;;;10342326;28;20230;-69
2023/04/18 01:16:23;;;;;;;10.93;9.93;;;12.20;41.90;;;;;;10339019;28;20234;-69
2023/04/18 01:21:30;;;;;;;11.50;10.50;;;12.10;41.80;;;;;;10338258;28;20317;-69
2023/04/18 01:26:34;;;;;;;11.40;10.40;;;12.10;41.80;;;;;;10339522;28;20226;-70
2023/04/18 01:31:39;;;;;;;11.23;10.30;;;12.10;41.80;;;;;;10340892;28;20784;-69
2023/04/18 01:36:43;;;;;;;11.60;10.60;;;12.10;41.80;;;;;;10339730;28;20235;-69
2023/04/18 01:41:47;;;;;;;11.23;10.30;;;12.00;41.70;;;;;;10341279;28;20225;-69
2023/04/18 01:46:50;;;;;;;12.30;11.20;;;12.00;41.70;;;;;;10333764;28;20231;-69
2023/04/18 01:51:54;;;;;;;12.00;10.90;;;12.00;41.50;;;;;;10337018;28;20227;-69
2023/04/18 01:56:58;;;;;;;11.27;10.27;;;11.90;41.60;;;;;;10340496;28;20231;-69
2023/04/18 02:02:02;;;;;;;12.17;11.07;;;11.80;41.50;;;;;;10338875;28;20219;-70
2023/04/18 02:07:05;;;;;;;12.33;11.23;;;11.80;41.50;;;;;;10339493;28;20622;-70
2023/04/18 02:12:11;;;;;;;12.50;11.40;;;11.70;41.40;;;;;;10333348;28;20223;-70
2023/04/18 02:17:14;;;;;;;11.80;10.77;;;11.70;41.40;;;;;;10341385;28;20249;-69
2023/04/18 02:22:17;;;;;;;11.63;10.63;;;11.70;41.40;;;;;;10336014;28;20270;-70
2023/04/18 02:27:22;;;;;;;12.07;10.97;;;11.70;41.30;;;;;;10336136;28;20718;-69
2023/04/18 02:32:25;;;;;;;12.70;11.50;;;11.60;41.20;;;;;;10339254;28;20227;-69
2023/04/18 02:37:28;;;;;;;9.33;8.50;;;11.60;41.20;;;;;;10337272;28;20358;-69
2023/04/18 02:42:33;;;;;;;11.47;10.53;;;11.50;41.30;;;;;;10335692;28;20828;-69
2023/04/18 02:47:36;;;;;;;11.23;10.30;;;11.50;41.30;;;;;;10339501;28;20242;-69
2023/04/18 02:52:56;;;;;;;12.67;11.53;;;11.50;41.30;;;;;;10337656;28;20222;-69
2023/04/18 02:58:01;;;;;;;12.17;11.07;;;11.40;41.20;;;;;;10337814;28;20222;-69
2023/04/18 03:03:04;;;;;;;11.20;10.20;;;11.40;41.20;;;;;;10334196;28;20218;-69
2023/04/18 03:08:08;;;;;;;12.93;11.73;;;11.30;41.10;;;;;;10337531;28;20230;-69
2023/04/18 03:13:12;;;;;;;12.00;10.90;;;11.30;41.10;;;;;;10338137;28;20242;-70
2023/04/18 03:18:16;;;;;;;9.87;8.97;;;11.20;41.00;;;;;;10336943;28;20241;-69
2023/04/18 03:23:19;;;;;;;11.67;10.57;;;11.20;41.00;;;;;;10334294;28;20233;-69
2023/04/18 03:28:23;;;;;;;11.47;10.37;;;11.20;41.00;;;;;;10335424;28;20247;-69
2023/04/18 03:33:27;;;;;;;12.23;11.07;;;11.20;41.00;;;;;;10333991;28;20594;-70
2023/04/18 03:38:31;;;;;;;10.50;9.40;;;11.20;41.00;;;;;;10334123;28;20233;-70
2023/04/18 03:43:35;;;;;;;9.37;7.63;;;11.10;40.90;;;;;;10337872;28;20229;-69
2023/04/18 03:48:38;;;;;;;10.90;9.90;;;11.00;40.80;;;;;;10333623;28;20226;-69
2023/04/18 03:53:41;;;;;;;13.40;12.10;;;10.90;40.70;;;;;;10332421;28;20308;-69
2023/04/18 03:58:46;;;;;;;11.93;10.83;;;10.90;40.70;;;;;;10334931;28;20721;-69
2023/04/18 04:03:49;;;;;;;10.03;9.13;;;10.80;40.60;;;;;;10335798;28;20219;-69
2023/04/18 04:08:52;;;;;;;11.27;10.23;;;10.80;41.30;;;;;;10344056;28;20227;-69
2023/04/18 04:13:57;;;;;;;12.50;11.23;;;10.80;40.60;;;;;;10339844;28;20234;-70
2023/04/18 04:19:00;;;;;;;12.97;11.77;;;10.80;40.60;;;;;;10341828;28;20248;-70
2023/04/18 04:24:03;;;;;;;12.70;11.50;;;10.70;40.50;;;;;;10342476;28;20230;-70
2023/04/18 04:29:09;;;;;;;14.10;12.63;;;10.60;40.50;;;;;;10344130;28;20234;-71
2023/04/18 04:34:13;;;;;;;14.50;13.10;;;10.60;40.80;;;;;;10338123;28;20234;-69
2023/04/18 04:39:16;;;;;;;12.97;11.57;;;10.60;40.80;;;;;;10343071;28;20664;-70
2023/04/18 04:44:24;;;;;;;14.77;13.27;;;10.50;40.80;;;;;;10346543;28;20230;-70
2023/04/18 04:49:28;;;;;;;15.97;14.37;;;10.50;41.10;;;;;;10339666;28;20290;-72
2023/04/18 04:54:31;;;;;;;15.07;13.57;;;10.40;41.10;;;;;;10339035;28;20226;-72
2023/04/18 04:59:35;;;;;;;15.43;13.87;;;10.40;41.30;;;;;;10340300;28;20305;-73
2023/04/18 05:04:39;;;;;;;14.47;13.00;;;10.40;41.50;;;;;;10344093;28;20592;-72
2023/04/18 05:09:42;;;;;;;14.63;13.23;;;10.30;41.30;;;;;;10335996;28;20606;-69
2023/04/18 05:14:47;;;;;;;14.77;13.20;;;10.40;41.50;;;;;;10329988;28;20230;-70
2023/04/18 05:19:50;;;;;;;13.70;12.30;;;10.40;41.80;;;;;;10333626;28;20648;-69
2023/04/18 05:24:53;;;;;;;15.63;13.77;;;10.40;43.20;;;;;;10334842;28;20319;-72
2023/04/18 05:29:58;;;;;;;15.93;14.20;;;10.50;42.60;;;;;;10333633;28;20234;-70
2023/04/18 05:35:02;;;;;;;14.63;13.13;;;10.60;42.40;;;;;;10336367;28;20247;-72
2023/04/18 05:40:06;;;;;;;16.43;14.17;;;10.60;42.20;;;;;;10336782;28;20230;-70
2023/04/18 05:45:11;;;;;;;15.07;13.63;;;10.70;42.30;;;;;;10336145;28;20258;-69
2023/04/18 05:50:15;;;;;;;16.20;14.50;;;10.70;42.60;;;;;;10337455;28;20233;-69
2023/04/18 05:55:18;;;;;;;15.50;14.00;;;10.70;42.40;;;;;;10340932;28;20253;-79
2023/04/18 06:00:23;;;;;;;16.57;13.73;;;10.70;42.60;;;;;;10350803;28;20237;-69
2023/04/18 06:05:27;;;;;;;16.53;14.90;;;10.70;42.90;;;;;;10340028;28;20607;-69
2023/04/18 06:10:30;;;;;;;16.13;14.53;;;10.80;42.90;;;;;;10343250;28;20237;-69
2023/04/18 06:15:36;;;;;;;16.33;14.73;;;10.80;43.00;;;;;;10339879;28;20223;-69
2023/04/18 06:20:40;;;;;;;14.60;13.10;;;10.80;43.70;;;;;;10333889;28;20231;-69
2023/04/18 06:25:44;;;;;;;16.13;14.47;;;10.80;43.20;;;;;;10332013;28;20235;-69
2023/04/18 06:30:48;;;;;;;16.53;14.83;;;10.90;43.50;;;;;;10334730;28;20215;-73
2023/04/18 06:35:52;;;;;;;15.47;13.87;;;11.00;43.90;;;;;;10333004;28;20231;-71
2023/04/18 06:40:55;;;;;;;17.47;15.67;;;11.10;43.90;;;;;;10336654;28;20219;-71
2023/04/18 06:45:59;;;;;;;16.50;14.70;;;11.20;44.00;;;;;;10336946;28;20723;-71
2023/04/18 06:51:03;;;;;;;16.37;14.67;;;11.30;44.50;;;;;;10337829;28;20316;-71
2023/04/18 06:56:06;;;;;;;16.60;14.90;;;11.40;44.10;;;;;;10334569;28;20239;-71
2023/04/18 07:01:11;;;;;;;16.73;14.93;;;11.50;44.10;;;;;;10335436;28;20222;-71
2023/04/18 07:06:14;;;;;;;17.10;14.77;;;11.60;44.20;;;;;;10331686;28;20885;-71
2023/04/18 07:11:18;;;;;;;16.57;14.50;;;11.70;44.20;;;;;;10334805;28;20234;-71
2023/04/18 07:16:22;;;;;;;16.50;14.80;;;11.80;44.30;;;;;;10332103;28;20230;-71
2023/04/18 07:21:26;;;;;;;16.77;14.17;;;11.90;44.40;;;;;;10335619;28;20234;-71
2023/04/18 07:26:29;;;;;;;16.73;14.00;;;12.00;44.20;;;;;;10334300;28;20239;-71
2023/04/18 07:31:34;;;;;;;15.93;14.23;;;12.10;44.30;;;;;;10332132;28;20218;-71
2023/04/18 07:36:37;;;;;;;15.50;13.77;;;12.20;44.50;;;;;;10334102;28;20297;-71
2023/04/18 07:41:40;;;;;;;14.43;12.67;;;12.30;44.30;;;;;;10332871;28;20227;-71
2023/04/18 07:46:45;;;;;;;13.47;12.07;;;12.40;44.20;;;;;;10337762;28;20254;-71
2023/04/18 07:51:49;;;;;;;12.87;11.57;;;12.50;44.30;;;;;;10335976;28;20231;-71
2023/04/18 07:56:52;;;;;;;14.10;12.10;;;12.60;44.10;;;;;;10337644;28;20234;-71
2023/04/18 08:01:56;;;;;;;13.13;11.80;;;12.60;44.30;;;;;;10335994;28;20222;-71
2023/04/18 08:06:59;;;;;;;12.50;11.23;;;12.70;44.50;;;;;;10331140;28;20223;-71
2023/04/18 08:12:03;;;;;;;13.97;12.43;;;12.90;44.70;;;;;;10336037;28;20231;-71
2023/04/18 08:17:07;;;;;;;13.20;11.90;;;13.00;44.60;;;;;;10334481;28;20570;-71
2023/04/18 08:22:11;;;;;;;14.27;12.07;;;13.10;44.30;;;;;;10333521;28;20706;-71
2023/04/18 08:27:14;;;;;;;13.50;12.20;;;13.20;44.10;;;;;;10333707;28;20257;-71
2023/04/18 08:32:19;;;;;;;13.83;11.87;;;13.30;44.00;;;;;;10331635;28;20604;-71
2023/04/18 08:37:22;;;;;;;12.60;11.33;;;13.30;44.30;;;;;;10333056;28;20266;-71
2023/04/18 08:42:25;;;;;;;11.87;10.60;;;13.40;44.20;;;;;;10333442;28;20537;-71
2023/04/18 08:47:30;;;;;;;12.90;11.30;;;13.50;44.10;;;;;;10334617;28;20707;-69
2023/04/18 08:52:36;;;;;;;13.50;12.10;;;13.60;44.00;;;;;;10336494;28;20234;-70
2023/04/18 08:57:39;;;;;;;13.27;11.97;;;13.80;43.80;;;;;;10345289;28;20233;-70
2023/04/18 09:02:45;;;;;;;12.83;11.47;;;13.90;43.40;;;;;;10342448;28;20782;-69
2023/04/18 09:07:51;;;;;;;15.03;13.00;;;13.90;43.40;;;;;;10338534;28;20226;-69
2023/04/18 09:12:56;;;;;;;12.53;11.23;;;14.00;43.40;;;;;;10343137;28;20589;-69
2023/04/18 09:18:02;;;;;;;12.57;11.27;;;14.10;43.60;;;;;;10340235;28;20274;-70
2023/04/18 09:23:09;;;;;;;12.20;10.97;;;14.20;43.60;;;;;;10340325;28;20215;-70
2023/04/18 09:28:23;;;;;;;10.60;9.50;;;14.30;43.70;;;;;;10340545;28;20323;-69
2023/04/18 09:33:31;;;;;;;11.77;10.27;;;14.30;42.90;;;;;;10336954;28;20278;-70
2023/04/18 09:38:40;;;;;;;11.10;10.00;;;14.40;43.20;;;;;;10338827;28;20664;-69
2023/04/18 09:43:44;;;;;;;11.03;9.90;;;14.40;42.80;;;;;;10339853;28;20226;-70
2023/04/18 09:48:49;;;;;;;12.97;11.67;;;14.40;43.10;;;;;;10342522;28;20241;-76
2023/04/18 09:53:53;;;;;;;11.13;10.03;;;14.50;43.20;;;;;;10336325;28;20273;-77
2023/04/18 09:59:01;;;;;;;10.80;9.77;;;14.60;43.20;;;;;;10340390;28;20227;-76
2023/04/18 10:04:06;;;;;;;11.80;10.63;;;14.60;43.00;;;;;;10340610;28;20222;-76
2023/04/18 10:09:10;;;;;;;11.70;10.57;;;14.70;43.00;;;;;;10335748;28;20234;-76
2023/04/18 10:14:16;;;;;;;11.20;10.10;;;14.80;43.10;;;;;;10342996;28;20226;-76
2023/04/18 10:19:29;;;;;;;10.23;9.27;;;14.90;42.90;;;;;;10339870;28;20329;-76
2023/04/18 10:24:52;;;;;;;10.03;9.13;;;15.10;42.40;;;;;;10340785;28;20222;-76
2023/04/18 10:29:56;;;;;;;8.50;7.70;;;15.10;41.90;;;;;;10338475;28;20250;-77
2023/04/18 10:35:01;;;;;;;9.77;8.77;;;15.20;42.40;;;;;;10339611;28;20246;-76
2023/04/18 10:40:06;;;;;;;9.73;8.77;;;15.20;42.00;;;;;;10334910;28;20311;-76
2023/04/18 10:45:20;;;;;;;9.67;8.70;;;15.30;42.10;;;;;;10336542;28;20261;-76
2023/04/18 10:50:24;;;;;;;9.17;8.27;;;15.40;41.40;;;;;;10338493;28;20227;-76
2023/04/18 10:55:30;;;;;;;9.07;8.27;;;15.40;41.60;;;;;;10333972;28;20234;-76
2023/04/18 11:00:33;;;;;;;8.83;7.93;;;15.50;41.60;;;;;;10334226;28;20223;-75
2023/04/18 11:05:38;;;;;;;8.70;7.90;;;15.50;41.80;;;;;;10335157;28;20596;-75
2023/04/18 11:10:41;;;;;;;7.90;7.20;;;15.50;41.50;;;;;;10329153;28;20223;-75
2023/04/18 11:15:45;;;;;;;8.67;7.87;;;15.60;41.80;;;;;;10333363;28;20423;-75
2023/04/18 11:20:50;;;;;;;7.60;6.93;;;15.70;41.90;;;;;;10328881;28;20227;-75
2023/04/18 11:25:55;;;;;;;7.83;7.13;;;15.80;41.30;;;;;;10335832;28;20226;-75
2023/04/18 11:30:59;;;;;;;7.07;6.37;;;16.00;41.30;;;;;;10330311;28;20314;-75
2023/04/18 11:36:05;;;;;;;7.13;6.50;;;16.00;41.30;;;;;;10333633;28;20222;-73
2023/04/18 11:41:13;;;;;;;6.37;5.87;;;16.10;40.90;;;;;;10333197;28;20641;-74
2023/04/18 11:46:16;;;;;;;6.60;6.00;;;16.20;40.40;;;;;;10332413;28;20324;-74
2023/04/18 11:51:35;;;;;;;6.03;5.53;;;16.20;41.00;;;;;;10331690;28;20702;-75
2023/04/18 11:56:48;;;;;;;6.60;6.00;;;16.30;40.20;;;;;;10331686;28;20235;-75
2023/04/18 12:01:59;;;;;;;7.40;6.70;;;16.30;40.10;;;;;;10328275;28;20230;-75
2023/04/18 12:07:31;;;;;;;8.00;7.30;;;16.40;39.60;;;;;;10332342;28;20226;-75
2023/04/18 12:12:35;;;;;;;8.33;7.63;;;16.40;39.50;;;;;;10329786;28;20226;-76
2023/04/18 12:17:39;;;;;;;7.87;6.93;;;16.40;40.10;;;;;;10330510;28;20241;-75
2023/04/18 12:22:46;;;;;;;7.33;6.73;;;16.30;40.20;;;;;;10333458;28;20646;-75
2023/04/18 12:27:54;;;;;;;8.20;7.50;;;16.20;39.70;;;;;;10332940;28;20231;-75
2023/04/18 12:32:58;;;;;;;7.73;7.03;;;16.20;39.30;;;;;;10340818;28;20219;-75
2023/04/18 12:38:04;;;;;;;6.83;6.23;;;16.20;39.80;;;;;;10340040;28;20245;-74
2023/04/18 12:43:08;;;;;;;7.30;6.70;;;16.20;39.50;;;;;;10337627;28;20223;-74
2023/04/18 12:48:12;;;;;;;7.47;6.77;;;16.20;39.80;;;;;;10340534;28;20230;-75
2023/04/18 12:53:16;;;;;;;7.70;7.00;;;16.10;39.70;;;;;;10339438;28;20230;-75
2023/04/18 12:58:20;;;;;;;8.60;7.80;;;16.10;39.30;;;;;;10337099;28;20230;-75
2023/04/18 13:03:23;;;;;;;7.77;7.07;;;16.00;39.50;;;;;;10339571;28;20603;-75
2023/04/18 13:08:28;;;;;;;8.63;7.83;;;16.00;39.50;;;;;;10336587;28;20235;-75
2023/04/18 13:13:31;;;;;;;7.97;7.27;;;15.90;39.30;;;;;;10339621;28;20226;-75
2023/04/18 13:18:37;;;;;;;8.93;8.10;;;15.90;39.70;;;;;;10338309;28;20604;-75
2023/04/18 13:23:42;;;;;;;8.27;7.57;;;15.90;39.90;;;;;;10338205;28;20722;-75
2023/04/18 13:28:45;;;;;;;8.43;7.73;;;15.90;39.50;;;;;;10341423;28;20226;-75
2023/04/18 13:33:48;;;;;;;7.90;7.30;;;15.90;39.70;;;;;;10334028;28;20233;-75
2023/04/18 13:38:53;;;;;;;7.70;7.10;;;15.90;39.70;;;;;;10337216;28;20238;-75
2023/04/18 13:43:56;;;;;;;8.30;7.60;;;15.90;39.40;;;;;;10325174;28;20655;-76
2023/04/18 13:48:59;;;;;;;8.43;7.73;;;15.90;39.50;;;;;;10341405;28;20781;-76
2023/04/18 13:54:04;;;;;;;7.73;7.07;;;15.90;39.60;;;;;;10332547;28;20230;-75
2023/04/18 13:59:07;;;;;;;8.10;7.30;;;15.90;39.60;;;;;;10333199;28;20257;-72
2023/04/18 14:04:10;;;;;;;7.50;6.80;;;15.80;39.50;;;;;;10335127;28;20231;-74
2023/04/18 14:09:16;;;;;;;7.83;7.23;;;15.90;39.70;;;;;;10340900;28;20589;-75
2023/04/18 14:14:19;;;;;;;7.40;6.80;;;15.90;39.30;;;;;;10335543;28;20708;-75
2023/04/18 14:19:22;;;;;;;7.77;7.07;;;15.90;39.70;;;;;;10337436;28;20257;-75
2023/04/18 14:24:27;;;;;;;7.67;7.03;;;15.90;39.80;;;;;;10334321;28;20233;-75
2023/04/18 14:29:30;;;;;;;6.93;6.33;;;16.00;39.40;;;;;;10334945;28;20588;-74
2023/04/18 14:34:33;;;;;;;7.20;6.60;;;16.00;39.50;;;;;;10332209;28;20227;-75
2023/04/18 14:39:40;;;;;;;6.97;6.40;;;16.10;39.30;;;;;;10333701;28;20227;-75
2023/04/18 14:44:43;;;;;;;7.43;6.83;;;16.10;39.10;;;;;;10338186;28;20230;-75
2023/04/18 14:49:46;;;;;;;6.50;6.00;;;16.10;39.30;;;;;;10334420;28;20235;-76
2023/04/18 14:54:51;;;;;;;7.23;6.63;;;16.00;39.50;;;;;;10332476;28;20222;-77
2023/04/18 14:59:55;;;;;;;7.20;6.60;;;16.10;39.20;;;;;;10334518;28;20265;-76
2023/04/18 15:04:58;;;;;;;7.03;6.40;;;16.10;39.30;;;;;;10332951;28;20226;-76
2023/04/18 15:10:03;;;;;;;6.63;6.03;;;16.10;39.20;;;;;;10331122;28;20235;-73
2023/04/18 15:15:07;;;;;;;6.80;6.20;;;16.00;38.80;;;;;;10334421;28;20237;-75
2023/04/18 15:20:10;;;;;;;7.60;6.90;;;15.90;39.10;;;;;;10331621;28;20226;-75
2023/04/18 15:25:15;;;;;;;6.80;6.20;;;15.90;39.10;;;;;;10332012;28;20305;-76
2023/04/18 15:30:19;;;;;;;6.93;6.33;;;15.90;38.90;;;;;;10330544;28;20569;-76
2023/04/18 15:35:22;;;;;;;6.93;6.43;;;15.80;39.20;;;;;;10330285;28;20239;-76
2023/04/18 15:40:27;;;;;;;6.67;6.07;;;15.90;39.10;;;;;;10334396;28;20264;-76
2023/04/18 15:45:30;;;;;;;7.40;6.80;;;16.00;39.20;;;;;;10330374;28;20755;-76
2023/04/18 15:50:33;;;;;;;7.47;6.87;;;16.00;39.20;;;;;;10337824;28;20219;-73
2023/04/18 15:55:38;;;;;;;6.40;5.80;;;16.00;39.20;;;;;;10335116;28;20223;-73
2023/04/18 16:00:42;;;;;;;7.80;7.13;;;16.00;39.00;;;;;;10328734;28;20226;-75
2023/04/18 16:05:46;;;;;;;7.73;7.13;;;16.10;39.30;;;;;;10342499;28;20238;-75
2023/04/18 16:10:51;;;;;;;8.37;7.57;;;16.10;39.30;;;;;;10341035;28;20233;-74
2023/04/18 16:15:55;;;;;;;7.90;7.20;;;16.20;39.10;;;;;;10334945;28;20234;-75
2023/04/18 16:20:58;;;;;;;7.53;6.90;;;16.20;39.30;;;;;;10335900;28;20258;-75
2023/04/18 16:26:02;;;;;;;7.90;7.20;;;16.30;39.20;;;;;;10335949;28;20226;-75
2023/04/18 16:31:06;;;;;;;7.80;7.20;;;16.30;38.90;;;;;;10333825;28;20285;-75
2023/04/18 16:36:09;;;;;;;7.43;6.83;;;16.30;39.10;;;;;;10333810;28;20242;-73
2023/04/18 16:41:14;;;;;;;9.37;8.57;;;16.30;39.10;;;;;;10338426;28;20230;-73
2023/04/18 16:46:17;;;;;;;9.27;8.50;;;16.30;39.00;;;;;;10337599;28;20683;-73
2023/04/18 16:51:21;;;;;;;9.20;8.40;;;16.30;39.10;;;;;;10333798;28;20329;-74
2023/04/18 16:56:25;;;;;;;8.87;7.90;;;16.30;39.10;;;;;;10333321;28;20242;-73
2023/04/18 17:01:28;;;;;;;7.23;6.63;;;16.30;38.90;;;;;;10334914;28;20233;-73
2023/04/18 17:06:31;;;;;;;7.27;6.67;;;16.30;39.00;;;;;;10333967;28;20238;-74
2023/04/18 17:11:37;;;;;;;7.00;6.40;;;16.40;39.10;;;;;;10334053;28;20230;-73
2023/04/18 17:16:42;;;;;;;8.23;7.53;;;16.30;38.90;;;;;;10334364;28;20277;-73
2023/04/18 17:21:45;;;;;;;7.67;6.97;;;16.30;38.90;;;;;;10334386;28;20297;-73
2023/04/18 17:26:50;;;;;;;6.57;5.97;;;16.30;38.40;;;;;;10336459;28;20231;-73
2023/04/18 17:31:54;;;;;;;5.80;5.30;;;16.20;38.10;;;;;;10334215;28;20847;-73
2023/04/18 17:36:57;;;;;;;5.97;5.47;;;16.10;38.30;;;;;;10340325;28;20710;-73
2023/04/18 17:42:02;;;;;;;6.43;5.93;;;15.90;38.10;;;;;;10337019;28;20241;-73
2023/04/18 17:47:05;;;;;;;7.13;6.43;;;15.80;38.10;;;;;;10335686;28;20230;-73
2023/04/18 17:52:08;;;;;;;6.47;5.97;;;15.70;38.30;;;;;;10334897;28;20223;-73
2023/04/18 17:57:13;;;;;;;6.23;5.73;;;15.60;38.30;;;;;;10335756;28;20218;-73
2023/04/18 18:02:16;;;;;;;7.20;6.60;;;15.50;38.30;;;;;;10332179;28;20747;-73
2023/04/18 18:07:19;;;;;;;6.87;6.27;;;15.50;38.30;;;;;;10328466;28;20249;-73
2023/04/18 18:12:24;;;;;;;6.50;6.00;;;15.40;38.40;;;;;;10341927;28;20726;-72
2023/04/18 18:17:27;;;;;;;6.57;5.97;;;15.30;38.30;;;;;;10348704;28;20249;-73
2023/04/18 18:22:30;;;;;;;7.53;6.83;;;15.30;38.60;;;;;;10344703;28;20219;-73
2023/04/18 18:27:36;;;;;;;7.23;6.53;;;15.20;38.50;;;;;;10344485;28;20238;-73
2023/04/18 18:32:39;;;;;;;7.27;6.67;;;15.10;38.40;;;;;;10350549;28;20230;-73
2023/04/18 18:37:42;;;;;;;7.13;6.53;;;15.10;38.40;;;;;;10346416;28;20552;-73
2023/04/18 18:42:48;;;;;;;6.70;6.10;;;15.10;38.40;;;;;;10338499;28;20718;-70
2023/04/18 18:47:51;;;;;;;6.57;6.07;;;15.10;38.50;;;;;;10333400;28;20543;-70
2023/04/18 18:52:55;;;;;;;6.50;6.00;;;15.00;38.50;;;;;;10332327;28;20284;-68
2023/04/18 18:57:59;;;;;;;6.20;5.70;;;14.90;38.60;;;;;;10333115;28;20285;-68
2023/04/18 19:03:03;;;;;;;6.50;5.97;;;14.90;38.70;;;;;;10330979;28;20306;-69
2023/04/18 19:08:08;;;;;;;6.73;6.13;;;14.90;38.90;;;;;;10325522;28;20766;-71
2023/04/18 19:13:12;;;;;;;7.23;6.63;;;14.80;39.00;;;;;;10326397;28;20223;-70
2023/04/18 19:18:17;;;;;;;7.33;6.63;;;14.80;39.20;;;;;;10325438;28;20578;-71
2023/04/18 19:23:22;;;;;;;7.37;6.77;;;14.80;39.20;;;;;;10323431;28;20223;-73
2023/04/18 19:28:27;;;;;;;7.47;6.87;;;14.80;39.30;;;;;;10326605;28;20318;-71
2023/04/18 19:33:30;;;;;;;7.37;6.77;;;14.80;39.50;;;;;;10323870;28;20234;-70
2023/04/18 19:38:34;;;;;;;7.50;6.90;;;14.80;39.40;;;;;;10323771;28;21310;-71
2023/04/18 19:43:41;;;;;;;6.70;6.17;;;14.80;39.40;;;;;;10320679;28;20230;-71
2023/04/18 19:48:44;;;;;;;7.13;6.47;;;14.80;39.40;;;;;;10316625;28;20226;-70
2023/04/18 19:53:47;;;;;;;6.47;5.97;;;14.70;39.20;;;;;;10318407;28;20227;-71
2023/04/18 19:58:52;;;;;;;6.37;5.77;;;14.70;39.20;;;;;;10325524;28;20227;-71
2023/04/18 20:03:58;;;;;;;5.73;5.23;;;14.70;39.30;;;;;;10328444;28;20245;-71
2023/04/18 20:09:02;;;;;;;6.63;5.60;;;14.70;39.30;;;;;;10325620;28;20257;-70
2023/04/18 20:14:07;;;;;;;6.37;5.73;;;14.60;39.30;;;;;;10330499;28;20215;-70
2023/04/18 20:19:10;;;;;;;6.13;5.63;;;14.60;39.30;;;;;;10327312;28;20227;-70
2023/04/18 20:24:14;;;;;;;5.90;5.40;;;14.60;39.30;;;;;;10324828;28;20237;-71
2023/04/18 20:29:19;;;;;;;5.67;5.27;;;14.60;39.30;;;;;;10321965;28;20231;-71
2023/04/18 20:34:22;;;;;;;6.00;5.50;;;14.60;40.10;;;;;;10322048;28;20241;-72
2023/04/18 20:39:25;;;;;;;5.90;5.40;;;14.50;39.30;;;;;;10328364;28;20230;-73
2023/04/18 20:44:33;;;;;;;5.87;5.43;;;14.50;39.30;;;;;;10325286;28;20231;-71
2023/04/18 20:49:36;;;;;;;6.17;5.60;;;14.50;39.40;;;;;;10323885;28;20241;-71
2023/04/18 20:54:40;;;;;;;5.80;5.30;;;14.40;39.40;;;;;;10327067;28;20223;-71
2023/04/18 20:59:45;;;;;;;6.03;5.53;;;14.40;39.40;;;;;;10333101;28;20979;-71
2023/04/18 21:04:48;;;;;;;6.20;5.70;;;14.30;39.50;;;;;;10331841;28;20226;-71
2023/04/18 21:09:51;;;;;;;5.67;5.20;;;14.30;39.60;;;;;;10332922;28;20348;-72
2023/04/18 21:14:56;;;;;;;5.77;5.37;;;14.20;39.50;;;;;;10333375;28;20223;-70
2023/04/18 21:19:59;;;;;;;6.00;5.50;;;14.20;39.60;;;;;;10331650;28;20223;-71
2023/04/18 21:25:03;;;;;;;6.50;6.00;;;14.20;39.60;;;;;;10335524;28;20222;-71
2023/04/18 21:30:09;;;;;;;6.23;5.63;;;14.20;39.70;;;;;;10340780;28;20237;-70
2023/04/18 21:35:12;;;;;;;6.13;5.63;;;14.10;39.80;;;;;;10343749;28;20719;-71
2023/04/18 21:40:15;;;;;;;5.83;5.33;;;14.10;39.70;;;;;;10337749;28;20230;-71
2023/04/18 21:45:20;;;;;;;6.07;5.57;;;14.10;39.80;;;;;;10338141;28;20218;-71
2023/04/18 21:50:23;;;;;;;5.63;5.23;;;14.00;39.80;;;;;;10339778;28;20267;-71
2023/04/18 21:55:27;;;;;;;6.43;5.87;;;14.00;39.80;;;;;;10342429;28;20479;-72
2023/04/18 22:00:31;;;;;;;7.20;6.50;;;14.00;39.80;;;;;;10341987;28;20222;-71
2023/04/18 22:05:35;;;;;;;7.10;6.43;;;14.00;40.00;;;;;;10341224;28;20223;-72
2023/04/18 22:10:38;;;;;;;7.30;6.70;;;13.90;39.80;;;;;;10336410;28;20218;-70
2023/04/18 22:15:43;;;;;;;6.67;6.17;;;13.90;39.90;;;;;;10338779;28;20313;-72
2023/04/18 22:20:47;;;;;;;7.10;6.50;;;13.90;39.90;;;;;;10333061;28;20235;-71
2023/04/18 22:25:50;;;;;;;5.93;5.53;;;13.80;39.70;;;;;;10341332;28;20471;-71
2023/04/18 22:30:54;;;;;;;7.23;6.63;;;13.80;39.80;;;;;;10339306;28;20226;-71
2023/04/18 22:35:57;;;;;;;6.87;6.27;;;13.70;39.80;;;;;;10338016;28;20737;-71
2023/04/18 22:41:01;;;;;;;7.77;7.07;;;13.70;39.70;;;;;;10332923;28;20230;-71
2023/04/18 22:46:05;;;;;;;7.50;6.90;;;13.70;39.90;;;;;;10338634;28;20714;-71
2023/04/18 22:51:08;;;;;;;7.53;6.93;;;13.70;40.10;;;;;;10337171;28;20215;-71
2023/04/18 22:56:11;;;;;;;8.13;7.33;;;13.60;40.00;;;;;;10339474;28;20235;-71
2023/04/18 23:01:16;;;;;;;8.03;7.33;;;13.60;40.10;;;;;;10338028;28;20793;-71
2023/04/18 23:06:19;;;;;;;7.70;7.10;;;13.60;40.30;;;;;;10333766;28;20309;-71
2023/04/18 23:11:23;;;;;;;8.53;7.73;;;13.60;40.10;;;;;;10336601;28;20237;-71
2023/04/18 23:16:27;;;;;;;7.87;7.20;;;13.60;40.20;;;;;;10339738;28;20697;-71
2023/04/18 23:21:31;;;;;;;8.00;7.30;;;13.50;40.30;;;;;;10339569;28;20226;-71
2023/04/18 23:26:34;;;;;;;7.90;7.23;;;13.50;40.30;;;;;;10337165;28;20229;-71
2023/04/18 23:31:39;;;;;;;7.83;7.20;;;13.50;40.30;;;;;;10335783;28;20234;-70
2023/04/18 23:36:42;;;;;;;8.83;8.13;;;13.50;40.50;;;;;;10338322;28;20230;-71
2023/04/18 23:41:46;;;;;;;8.40;7.70;;;13.60;40.50;;;;;;10336319;28;20335;-71
2023/04/18 23:46:51;;;;;;;8.53;7.83;;;13.60;40.50;;;;;;10338207;28;20226;-70
2023/04/18 23:51:54;;;;;;;9.57;8.77;;;13.50;40.60;;;;;;10335385;28;20221;-72
2023/04/18 23:56:57;;;;;;;8.70;8.00;;;13.50;40.50;;;;;;10338264;28;20843;-71
